Time;durP1;ratioP1;P1;durP2;ratioP2;P2;SDS_P1;SDS_P2;PMS_P1;PMS_P2;Temp;Humidity;BMP_temperature;BMP_pressure;BME280_temperature;BME280_humidity;BME280_pressure;Samples;Min_cycle;Max_cycle;Signal;HPM_P1;HPM_P2
2023/01/14 00:01:00;;;;;;;;;;;;;;;3.25;100.00;99396.97;5145509;27;19919;-88
2023/01/14 00:03:28;;;;;;;;;;;;;;;3.25;100.00;99384.03;5126701;27;19919;-87
2023/01/14 00:05:55;;;;;;;;;;;;;;;3.24;100.00;99361.66;5115937;28;19963;-88
2023/01/14 00:08:21;;;;;;;;;;;;;;;3.24;100.00;99359.06;5133367;27;20352;-88
2023/01/14 00:10:48;;;;;;;;;;;;;;;3.16;100.00;99350.69;5128841;27;19918;-87
2023/01/14 00:13:18;;;;;;;;;;;;;;;3.14;100.00;99355.06;5145479;27;19927;-87
2023/01/14 00:16:03;;;;;;;;;;;;;;;3.08;100.00;99356.09;5134968;27;19973;-87
2023/01/14 00:18:31;;;;;;;;;;;;;;;3.05;100.00;99345.81;5125828;28;19923;-89
2023/01/14 00:21:05;;;;;;;;;;;;;;;3.05;100.00;99371.69;5154140;27;19919;-88
2023/01/14 00:23:33;;;;;;;;;;;;;;;3.00;100.00;99389.06;5128980;27;19931;-87
2023/01/14 00:26:01;;;;;;;;;;;;;;;3.02;100.00;99371.75;5131600;27;20292;-86
2023/01/14 00:28:28;;;;;;;;;;;;;;;2.99;100.00;99354.59;5144036;27;20284;-88
2023/01/14 00:31:15;;;;;;;;;;;;;;;3.11;100.00;99349.97;5126450;27;19971;-88
2023/01/14 00:33:42;;;;;;;;;;;;;;;3.20;100.00;99360.03;5115994;27;19967;-87
2023/01/14 00:36:10;;;;;;;;;;;;;;;3.08;100.00;99368.16;5136460;27;19919;-88
2023/01/14 00:38:37;;;;;;;;;;;;;;;3.12;100.00;99362.00;5139135;27;19931;-87
2023/01/14 00:41:08;;;;;;;;;;;;;;;3.14;100.00;99347.28;5134108;27;19929;-88
2023/01/14 00:43:37;;;;;;;;;;;;;;;3.10;100.00;99331.03;5138612;27;19927;-88
2023/01/14 00:46:05;;;;;;;;;;;;;;;3.19;100.00;99324.72;5138080;27;19922;-87
2023/01/14 00:48:33;;;;;;;;;;;;;;;3.18;100.00;99323.03;5136480;27;20328;-89
2023/01/14 00:51:03;;;;;;;;;;;;;;;3.16;100.00;99319.63;5132936;27;20411;-88
2023/01/14 00:53:30;;;;;;;;;;;;;;;3.13;100.00;99314.56;5152649;27;20284;-87
2023/01/14 00:56:02;;;;;;;;;;;;;;;3.21;100.00;99317.75;5150596;27;20010;-85
2023/01/14 00:58:31;;;;;;;;;;;;;;;3.21;100.00;99318.59;5138742;27;19923;-88
2023/01/14 01:00:58;;;;;;;;;;;;;;;3.31;100.00;99315.72;5151625;27;19938;-87
2023/01/14 01:03:25;;;;;;;;;;;;;;;3.35;100.00;99301.81;5131900;27;19927;-88
2023/01/14 01:05:52;;;;;;;;;;;;;;;3.38;100.00;99289.63;5132513;27;19922;-87
2023/01/14 01:08:20;;;;;;;;;;;;;;;3.40;100.00;99293.03;5131945;27;19919;-89
2023/01/14 01:10:48;;;;;;;;;;;;;;;3.45;100.00;99281.66;5135285;27;19919;-87
2023/01/14 01:13:15;;;;;;;;;;;;;;;3.44;100.00;99272.22;5134386;27;19931;-87
2023/01/14 01:15:42;;;;;;;;;;;;;;;3.40;100.00;99261.13;5134998;27;19922;-87
2023/01/14 01:18:10;;;;;;;;;;;;;;;3.41;100.00;99261.06;5125929;27;19919;-88
2023/01/14 01:20:37;;;;;;;;;;;;;;;3.44;100.00;99261.88;5149608;27;20271;-88
2023/01/14 01:23:04;;;;;;;;;;;;;;;3.46;100.00;99258.34;5123454;27;19926;-88
2023/01/14 01:25:31;;;;;;;;;;;;;;;3.46;100.00;99260.09;5127101;27;19942;-87
2023/01/14 01:27:58;;;;;;;;;;;;;;;3.47;100.00;99259.19;5134795;27;20296;-87
2023/01/14 01:30:25;;;;;;;;;;;;;;;3.41;100.00;99237.78;5127637;27;19920;-87
2023/01/14 01:32:52;;;;;;;;;;;;;;;3.37;100.00;99230.19;5132820;27;21776;-87
2023/01/14 01:35:20;;;;;;;;;;;;;;;3.39;100.00;99230.97;5129347;27;19951;-88
2023/01/14 01:37:46;;;;;;;;;;;;;;;3.40;100.00;99218.00;5132389;27;20464;-87
2023/01/14 01:40:13;;;;;;;;;;;;;;;3.44;100.00;99204.97;5135150;27;20363;-87
2023/01/14 01:43:00;;;;;;;;;;;;;;;3.40;100.00;99199.88;5131741;27;19934;-86
2023/01/14 01:45:39;;;;;;;;;;;;;;;3.36;100.00;99187.06;5143027;27;19919;-87
2023/01/14 01:48:22;;;;;;;;;;;;;;;3.29;100.00;99177.81;5149496;27;19919;-86
2023/01/14 01:50:52;;;;;;;;;;;;;;;3.40;100.00;99168.00;5150783;27;19919;-86
2023/01/14 01:53:19;;;;;;;;;;;;;;;3.45;100.00;99149.72;5125598;27;20298;-87
2023/01/14 01:55:48;;;;;;;;;;;;;;;3.55;100.00;99132.97;5129798;27;19923;-88
2023/01/14 01:58:14;;;;;;;;;;;;;;;3.57;100.00;99124.25;5146949;27;19923;-89
2023/01/14 02:00:41;;;;;;;;;;;;;;;3.60;100.00;99112.97;5134677;27;19926;-87
2023/01/14 02:03:10;;;;;;;;;;;;;;;3.58;100.00;99115.59;5131884;27;19926;-88
2023/01/14 02:05:37;;;;;;;;;;;;;;;3.59;100.00;99113.84;5153101;27;20260;-87
2023/01/14 02:08:04;;;;;;;;;;;;;;;3.61;100.00;99101.69;5137952;27;20336;-88
2023/01/14 02:10:44;;;;;;;;;;;;;;;3.69;100.00;99089.34;5137980;27;19919;-88
2023/01/14 02:13:30;;;;;;;;;;;;;;;3.69;100.00;99094.50;5137215;27;19919;-88
2023/01/14 02:16:06;;;;;;;;;;;;;;;3.60;100.00;99093.09;5137610;27;19919;-87
2023/01/14 02:18:59;;;;;;;;;;;;;;;3.66;100.00;99088.59;5137137;27;19973;-88
2023/01/14 02:21:29;;;;;;;;;;;;;;;3.70;100.00;99085.00;5134319;27;20364;-87
2023/01/14 02:24:14;;;;;;;;;;;;;;;3.71;100.00;99072.00;5136935;27;19963;-87
2023/01/14 02:26:44;;;;;;;;;;;;;;;3.61;100.00;99049.94;5137279;27;19926;-88
2023/01/14 02:29:17;;;;;;;;;;;;;;;3.64;100.00;99043.81;5130267;27;20014;-88
2023/01/14 02:31:46;;;;;;;;;;;;;;;3.68;100.00;99033.28;5151212;27;19919;-88
2023/01/14 02:34:34;;;;;;;;;;;;;;;3.64;100.00;99018.75;5136190;27;19919;-88
2023/01/14 02:37:00;;;;;;;;;;;;;;;3.75;100.00;99020.94;5137435;27;19919;-88
2023/01/14 02:39:35;;;;;;;;;;;;;;;3.71;100.00;99001.28;5137176;27;19919;-88
2023/01/14 02:45:18;;;;;;;;;;;;;;;3.72;100.00;98975.34;5117229;27;19926;-88
2023/01/14 02:47:46;;;;;;;;;;;;;;;3.79;100.00;98969.03;5151773;27;19927;-88
2023/01/14 02:50:13;;;;;;;;;;;;;;;3.86;100.00;98973.94;5137156;27;19923;-88
2023/01/14 02:52:40;;;;;;;;;;;;;;;3.90;100.00;98973.78;5148363;27;19919;-88
2023/01/14 02:55:25;;;;;;;;;;;;;;;3.93;100.00;98970.22;5137890;27;19926;-88
2023/01/14 02:58:12;;;;;;;;;;;;;;;4.04;100.00;98946.50;5154953;27;19919;-88
2023/01/14 03:00:51;;;;;;;;;;;;;;;4.16;100.00;98951.19;5091995;27;20388;-88
2023/01/14 03:03:18;;;;;;;;;;;;;;;4.24;100.00;98940.53;5132342;27;19922;-89
2023/01/14 03:05:45;;;;;;;;;;;;;;;4.34;100.00;98936.69;5134013;27;19923;-87
2023/01/14 03:08:14;;;;;;;;;;;;;;;4.39;100.00;98924.34;5133531;27;19919;-88
2023/01/14 03:11:07;;;;;;;;;;;;;;;4.43;100.00;98918.16;5137383;27;20379;-89
2023/01/14 03:13:52;;;;;;;;;;;;;;;4.47;100.00;98905.91;5132340;27;19919;-88
2023/01/14 03:16:23;;;;;;;;;;;;;;;4.41;100.00;98890.59;5154994;27;19919;-88
2023/01/14 03:18:50;;;;;;;;;;;;;;;4.35;100.00;98883.94;5125392;27;20372;-88
2023/01/14 03:21:18;;;;;;;;;;;;;;;4.37;100.00;98877.78;5136502;27;19926;-87
2023/01/14 03:23:50;;;;;;;;;;;;;;;4.41;100.00;98881.09;5154220;27;19926;-88
2023/01/14 03:26:17;;;;;;;;;;;;;;;4.42;100.00;98867.22;5154377;27;19926;-88
2023/01/14 03:28:47;;;;;;;;;;;;;;;4.44;100.00;98852.44;5135995;27;19926;-88
2023/01/14 03:31:16;;;;;;;;;;;;;;;4.45;100.00;98851.53;5136013;27;19919;-88
2023/01/14 03:34:04;;;;;;;;;;;;;;;4.46;100.00;98836.84;5136056;27;19925;-87
2023/01/14 03:36:33;;;;;;;;;;;;;;;4.49;100.00;98823.75;5125411;27;19942;-89
2023/01/14 03:39:04;;;;;;;;;;;;;;;4.52;100.00;98818.44;5154990;27;19942;-88
2023/01/14 03:44:21;;;;;;;;;;;;;;;4.71;100.00;98806.34;5144384;27;19923;-88
2023/01/14 03:46:48;;;;;;;;;;;;;;;4.87;100.00;98796.13;5141661;27;19926;-88
2023/01/14 03:49:14;;;;;;;;;;;;;;;5.04;100.00;98789.34;5145558;27;19919;-88
2023/01/14 03:51:46;;;;;;;;;;;;;;;5.19;100.00;98777.38;5125843;28;19919;-88
2023/01/14 03:54:21;;;;;;;;;;;;;;;5.13;100.00;98770.75;5133865;27;19973;-88
2023/01/14 03:56:58;;;;;;;;;;;;;;;5.44;100.00;98757.16;5136046;27;19962;-88
2023/01/14 03:59:43;;;;;;;;;;;;;;;5.54;100.00;98754.13;5121064;27;19926;-87
2023/01/14 04:02:10;;;;;;;;;;;;;;;5.49;100.00;98746.56;5154474;27;20310;-87
2023/01/14 04:04:37;;;;;;;;;;;;;;;5.49;100.00;98731.81;5137327;27;19973;-87
2023/01/14 04:07:04;;;;;;;;;;;;;;;5.54;100.00;98726.38;5139738;27;19919;-86
2023/01/14 04:09:30;;;;;;;;;;;;;;;5.61;100.00;98711.34;5143536;27;20395;-87
2023/01/14 04:11:57;;;;;;;;;;;;;;;5.66;100.00;98706.78;5149251;27;19919;-84
2023/01/14 04:17:08;;;;;;;;;;;;;;;5.67;100.00;98696.31;5142302;27;19919;-87
2023/01/14 04:19:35;;;;;;;;;;;;;;;5.68;100.00;98697.16;5139718;27;19946;-86
2023/01/14 04:22:01;;;;;;;;;;;;;;;5.68;100.00;98698.03;5138810;27;19919;-86
2023/01/14 04:24:28;;;;;;;;;;;;;;;5.62;100.00;98685.31;5173029;27;19923;-86
2023/01/14 04:26:55;;;;;;;;;;;;;;;5.63;100.00;98678.38;5139251;27;20280;-86
2023/01/14 04:29:21;;;;;;;;;;;;;;;5.62;100.00;98664.56;5150712;27;19923;-86
2023/01/14 04:31:48;;;;;;;;;;;;;;;5.57;100.00;98658.75;5124935;27;19926;-87
2023/01/14 04:34:15;;;;;;;;;;;;;;;5.61;100.00;98649.91;5157658;27;19987;-86
2023/01/14 04:36:41;;;;;;;;;;;;;;;5.59;100.00;98643.94;5143246;27;19919;-86
2023/01/14 04:39:08;;;;;;;;;;;;;;;5.56;100.00;98653.63;5139133;27;19918;-85
2023/01/14 04:44:20;;;;;;;;;;;;;;;5.49;100.00;98624.56;5155638;27;19972;-85
2023/01/14 04:46:46;;;;;;;;;;;;;;;5.64;100.00;98613.38;5150322;27;19926;-83
2023/01/14 04:49:13;;;;;;;;;;;;;;;5.54;100.00;98606.97;5143855;27;20375;-83
2023/01/14 04:51:39;;;;;;;;;;;;;;;5.59;100.00;98605.00;5144914;27;19919;-83
2023/01/14 04:54:06;;;;;;;;;;;;;;;5.64;100.00;98596.97;5155229;27;19926;-82
2023/01/14 04:56:33;;;;;;;;;;;;;;;5.57;100.00;98587.84;5146580;27;19919;-83
2023/01/14 04:59:01;;;;;;;;;;;;;;;5.31;100.00;98601.22;5132520;27;19968;-83
2023/01/14 05:01:28;;;;;;;;;;;;;;;5.49;100.00;98583.88;5136854;27;19919;-83
2023/01/14 05:03:58;;;;;;;;;;;;;;;5.28;100.00;98578.00;5138623;27;20006;-83
2023/01/14 05:06:26;;;;;;;;;;;;;;;5.17;100.00;98558.69;5139001;27;20391;-84
2023/01/14 05:08:52;;;;;;;;;;;;;;;5.31;100.00;98544.13;5138837;27;19919;-83
2023/01/14 05:11:19;;;;;;;;;;;;;;;5.49;100.00;98531.13;5142402;27;19926;-83
2023/01/14 05:13:45;;;;;;;;;;;;;;;5.43;100.00;98511.50;5143978;27;19930;-83
2023/01/14 05:16:12;;;;;;;;;;;;;;;5.56;100.00;98503.94;5131625;27;19923;-83
2023/01/14 05:18:38;;;;;;;;;;;;;;;5.50;100.00;98496.44;5138383;27;19918;-83
2023/01/14 05:21:05;;;;;;;;;;;;;;;5.60;100.00;98486.44;5157163;27;19923;-83
2023/01/14 05:23:32;;;;;;;;;;;;;;;5.51;100.00;98462.63;5157054;27;20364;-83
2023/01/14 05:25:58;;;;;;;;;;;;;;;5.49;100.00;98456.69;5142686;27;19919;-83
2023/01/14 05:28:25;;;;;;;;;;;;;;;5.67;100.00;98449.66;5157097;27;19930;-83
2023/01/14 05:30:52;;;;;;;;;;;;;;;5.45;100.00;98438.75;5144034;27;19919;-83
2023/01/14 05:33:18;;;;;;;;;;;;;;;5.60;100.00;98430.16;5153741;27;20359;-82
2023/01/14 05:35:45;;;;;;;;;;;;;;;5.64;100.00;98429.06;5157077;27;20357;-82
2023/01/14 05:38:11;;;;;;;;;;;;;;;5.80;100.00;98415.25;5136718;27;19925;-82
2023/01/14 05:40:38;;;;;;;;;;;;;;;5.58;100.00;98403.44;5135374;27;19919;-84
2023/01/14 05:45:51;;;;;;;;;;;;;;;5.69;100.00;98374.28;5156198;27;19926;-85
2023/01/14 05:48:19;;;;;;;;;;;;;;;5.83;100.00;98371.75;5149566;27;20540;-82
2023/01/14 05:50:56;;;;;;;;;;;;;;;5.83;100.00;98360.56;5138049;27;19937;-85
2023/01/14 05:53:23;;;;;;;;;;;;;;;5.78;100.00;98342.63;5136773;27;19926;-85
2023/01/14 05:55:50;;;;;;;;;;;;;;;5.78;100.00;98342.63;5128678;27;20336;-84
2023/01/14 05:58:17;;;;;;;;;;;;;;;5.71;100.00;98333.50;5138033;27;20306;-85
2023/01/14 06:06:20;;;;;;;;;;;;;;;5.89;100.00;98305.66;5156487;27;20320;-83
2023/01/14 06:08:52;;;;;;;;;;;;;;;5.98;100.00;98286.97;5137476;27;19981;-84
2023/01/14 06:11:19;;;;;;;;;;;;;;;6.04;100.00;98275.41;5137409;27;19926;-84
2023/01/14 06:13:47;;;;;;;;;;;;;;;6.17;100.00;98265.94;5124346;27;19932;-83
2023/01/14 06:16:14;;;;;;;;;;;;;;;6.07;100.00;98260.47;5118547;27;20541;-83
2023/01/14 06:18:44;;;;;;;;;;;;;;;6.14;100.00;98252.31;5118278;27;20027;-83
2023/01/14 06:21:15;;;;;;;;;;;;;;;6.07;100.00;98236.25;5143752;27;19919;-83
2023/01/14 06:23:41;;;;;;;;;;;;;;;6.15;100.00;98220.22;5131290;27;19923;-83
2023/01/14 06:26:16;;;;;;;;;;;;;;;6.32;100.00;98214.84;5133146;27;19926;-83
2023/01/14 06:28:43;;;;;;;;;;;;;;;6.30;100.00;98188.09;5131262;27;20352;-83
2023/01/14 06:31:11;;;;;;;;;;;;;;;6.33;100.00;98185.31;5131841;27;19930;-85
2023/01/14 06:33:38;;;;;;;;;;;;;;;6.35;100.00;98169.63;5151229;27;19962;-85
2023/01/14 06:36:06;;;;;;;;;;;;;;;6.34;100.00;98173.16;5134134;27;19923;-86
2023/01/14 06:38:32;;;;;;;;;;;;;;;6.50;100.00;98168.69;5138431;27;19919;-86
2023/01/14 06:41:00;;;;;;;;;;;;;;;6.51;100.00;98149.56;5127597;27;19926;-85
2023/01/14 06:43:26;;;;;;;;;;;;;;;6.68;100.00;98147.69;5132986;27;19927;-86
2023/01/14 06:45:54;;;;;;;;;;;;;;;6.77;100.00;98139.28;5127818;27;19919;-86
2023/01/14 06:48:21;;;;;;;;;;;;;;;6.76;100.00;98130.63;5134829;27;19926;-86
2023/01/14 06:50:47;;;;;;;;;;;;;;;6.52;100.00;98124.41;5133806;27;20383;-85
2023/01/14 06:53:14;;;;;;;;;;;;;;;6.58;100.00;98116.22;5148289;27;19919;-86
2023/01/14 06:55:41;;;;;;;;;;;;;;;6.74;100.00;98110.88;5145994;27;20352;-86
2023/01/14 06:58:10;;;;;;;;;;;;;;;6.88;100.00;98095.22;5145563;27;19923;-85
2023/01/14 07:00:37;;;;;;;;;;;;;;;6.93;100.00;98089.72;5133398;27;20364;-85
2023/01/14 07:03:04;;;;;;;;;;;;;;;6.97;100.00;98080.78;5133992;27;19929;-86
2023/01/14 07:05:31;;;;;;;;;;;;;;;6.89;100.00;98070.03;5133051;27;19957;-86
2023/01/14 07:07:57;;;;;;;;;;;;;;;6.99;100.00;98063.28;5129858;27;19923;-86
2023/01/14 07:10:24;;;;;;;;;;;;;;;6.86;100.00;98058.06;5150573;27;19919;-86
2023/01/14 07:12:51;;;;;;;;;;;;;;;6.99;100.00;98045.94;5122592;27;19927;-86
2023/01/14 07:15:19;;;;;;;;;;;;;;;6.90;100.00;98038.72;5124829;27;19965;-86
2023/01/14 07:17:46;;;;;;;;;;;;;;;7.05;100.00;98036.88;5151314;27;19930;-86
2023/01/14 07:20:13;;;;;;;;;;;;;;;6.94;100.00;98027.19;5142339;27;19923;-87
2023/01/14 07:22:39;;;;;;;;;;;;;;;7.14;100.00;98035.44;5139542;27;20421;-86
2023/01/14 07:25:07;;;;;;;;;;;;;;;7.08;100.00;98023.66;5135759;27;19922;-87
2023/01/14 07:27:33;;;;;;;;;;;;;;;6.88;100.00;98014.59;5129463;27;20303;-85
2023/01/14 07:30:00;;;;;;;;;;;;;;;6.97;100.00;98013.13;5132383;27;19919;-86
2023/01/14 07:32:27;;;;;;;;;;;;;;;6.96;100.00;98001.09;5128691;27;19919;-86
2023/01/14 07:34:53;;;;;;;;;;;;;;;6.80;100.00;98004.69;5130279;27;19919;-86
2023/01/14 07:37:20;;;;;;;;;;;;;;;7.00;100.00;97995.56;5150061;27;19926;-86
2023/01/14 07:39:46;;;;;;;;;;;;;;;7.15;100.00;98004.13;5131654;27;19941;-86
2023/01/14 07:42:16;;;;;;;;;;;;;;;7.21;100.00;97989.88;5144467;27;19923;-86
2023/01/14 07:44:43;;;;;;;;;;;;;;;7.05;100.00;97977.06;5139568;27;19963;-86
2023/01/14 07:47:15;;;;;;;;;;;;;;;7.20;100.00;97972.56;5134635;27;19948;-86
2023/01/14 07:49:41;;;;;;;;;;;;;;;7.26;100.00;97974.78;5135343;27;19919;-87
2023/01/14 07:52:12;;;;;;;;;;;;;;;7.23;100.00;97961.97;5130244;27;19923;-86
2023/01/14 07:54:42;;;;;;;;;;;;;;;7.24;100.00;97945.38;5133306;27;19919;-86
2023/01/14 07:57:09;;;;;;;;;;;;;;;7.25;100.00;97935.84;5126110;27;19923;-87
2023/01/14 07:59:37;;;;;;;;;;;;;;;7.14;100.00;97929.59;5130392;27;19919;-85
2023/01/14 08:02:04;;;;;;;;;;;;;;;7.17;100.00;97923.31;5142161;27;19919;-86
2023/01/14 08:04:31;;;;;;;;;;;;;;;7.29;100.00;97912.06;5135830;27;19919;-86
2023/01/14 08:06:58;;;;;;;;;;;;;;;7.11;100.00;97910.75;5133721;27;19927;-86
2023/01/14 08:09:25;;;;;;;;;;;;;;;7.20;100.00;97899.72;5146734;27;19923;-86
2023/01/14 08:11:52;;;;;;;;;;;;;;;7.21;100.00;97886.59;5131872;27;19942;-86
2023/01/14 08:14:19;;;;;;;;;;;;;;;7.31;100.00;97881.59;5129622;27;20262;-86
2023/01/14 08:16:46;;;;;;;;;;;;;;;7.21;100.00;97865.78;5139089;27;19923;-87
2023/01/14 08:19:12;;;;;;;;;;;;;;;7.24;100.00;97864.72;5135422;27;19987;-87
2023/01/14 08:21:39;;;;;;;;;;;;;;;7.17;100.00;97853.06;5135379;27;19922;-87
2023/01/14 08:24:06;;;;;;;;;;;;;;;7.17;100.00;97837.47;5153491;27;19927;-87
2023/01/14 08:26:32;;;;;;;;;;;;;;;7.27;100.00;97819.44;5130608;27;19927;-86
2023/01/14 08:28:59;;;;;;;;;;;;;;;7.37;100.00;97817.84;5134752;27;19919;-87
2023/01/14 08:31:31;;;;;;;;;;;;;;;7.42;100.00;97815.75;5134996;27;19927;-87
2023/01/14 08:33:58;;;;;;;;;;;;;;;7.28;100.00;97808.94;5131156;27;19919;-87
2023/01/14 08:36:25;;;;;;;;;;;;;;;7.42;100.00;97807.94;5136276;27;19919;-87
2023/01/14 08:38:53;;;;;;;;;;;;;;;7.40;100.00;97812.41;5132551;27;19920;-88
2023/01/14 08:41:20;;;;;;;;;;;;;;;7.41;100.00;97801.91;5125720;27;19919;-87
2023/01/14 08:43:48;;;;;;;;;;;;;;;7.30;100.00;97799.22;5151024;27;19984;-87
2023/01/14 08:46:15;;;;;;;;;;;;;;;7.27;100.00;97796.84;5128305;27;19926;-86
2023/01/14 08:48:41;;;;;;;;;;;;;;;7.32;100.00;97796.53;5128888;27;19926;-86
2023/01/14 08:51:12;;;;;;;;;;;;;;;7.37;100.00;97799.63;5135401;27;20288;-87
2023/01/14 08:53:40;;;;;;;;;;;;;;;7.48;100.00;97791.06;5156359;27;19919;-87
2023/01/14 08:56:10;;;;;;;;;;;;;;;7.41;100.00;97783.66;5139174;27;20014;-87
2023/01/14 08:58:37;;;;;;;;;;;;;;;7.46;100.00;97785.97;5135540;27;19919;-88
2023/01/14 09:01:07;;;;;;;;;;;;;;;7.43;100.00;97780.13;5133593;27;20276;-88
2023/01/14 09:03:38;;;;;;;;;;;;;;;7.20;100.00;97769.59;5132383;27;20014;-89
2023/01/14 09:06:09;;;;;;;;;;;;;;;7.32;100.00;97767.91;5132438;27;19933;-89
2023/01/14 09:19:34;;;;;;;;;;;;;;;7.51;100.00;97743.97;5154663;27;19925;-88
2023/01/14 09:22:01;;;;;;;;;;;;;;;7.56;100.00;97740.09;5155619;27;19919;-88
2023/01/14 09:24:31;;;;;;;;;;;;;;;7.59;100.00;97732.03;5153933;27;19925;-88
2023/01/14 09:26:58;;;;;;;;;;;;;;;7.63;100.00;97718.81;5134455;27;19930;-88
2023/01/14 09:29:25;;;;;;;;;;;;;;;7.56;100.00;97719.25;5138665;27;19918;-88
2023/01/14 09:31:52;;;;;;;;;;;;;;;7.60;100.00;97712.88;5138083;27;19919;-88
2023/01/14 09:34:19;;;;;;;;;;;;;;;7.52;100.00;97709.19;5154300;27;19999;-87
2023/01/14 09:36:45;;;;;;;;;;;;;;;7.50;100.00;97698.06;5137546;27;19923;-88
2023/01/14 09:39:12;;;;;;;;;;;;;;;7.63;100.00;97695.38;5134610;27;19919;-87
2023/01/14 09:42:06;;;;;;;;;;;;;;;7.57;100.00;97687.06;5131839;27;19922;-88
2023/01/14 09:44:33;;;;;;;;;;;;;;;7.49;100.00;97688.56;5146100;27;19918;-88
2023/01/14 09:46:59;;;;;;;;;;;;;;;7.56;100.00;97671.53;5128167;27;20283;-87
2023/01/14 09:49:29;;;;;;;;;;;;;;;7.58;100.00;97667.91;5127158;27;19971;-87
2023/01/14 09:52:01;;;;;;;;;;;;;;;7.41;100.00;97663.09;5135081;27;19926;-87
2023/01/14 09:54:37;;;;;;;;;;;;;;;7.46;100.00;97654.97;5145207;27;19926;-88
2023/01/14 09:57:31;;;;;;;;;;;;;;;7.42;100.00;97643.97;5139391;27;19927;-87
2023/01/14 10:00:16;;;;;;;;;;;;;;;7.34;100.00;97634.09;5132384;27;20383;-88
2023/01/14 10:02:46;;;;;;;;;;;;;;;7.60;100.00;97629.56;5129575;27;19926;-87
2023/01/14 10:05:19;;;;;;;;;;;;;;;7.57;100.00;97616.75;5138062;27;19919;-89
2023/01/14 10:07:49;;;;;;;;;;;;;;;7.52;100.00;97631.88;5135740;27;19926;-87
2023/01/14 10:10:26;;;;;;;;;;;;;;;7.62;100.00;97619.03;5126774;27;19923;-87
2023/01/14 10:12:53;;;;;;;;;;;;;;;7.54;100.00;97617.00;5130784;27;19923;-89
2023/01/14 10:15:26;;;;;;;;;;;;;;;7.65;100.00;97617.97;5153415;27;19918;-88
2023/01/14 10:18:02;;;;;;;;;;;;;;;7.65;100.00;97603.19;5138057;27;19998;-88
2023/01/14 10:20:37;;;;;;;;;;;;;;;7.67;100.00;97601.28;5138569;27;20304;-89
2023/01/14 10:23:14;;;;;;;;;;;;;;;7.65;100.00;97600.59;5137206;27;20348;-88
2023/01/14 10:25:44;;;;;;;;;;;;;;;7.65;100.00;97599.72;5131658;27;19925;-87
2023/01/14 10:28:14;;;;;;;;;;;;;;;7.57;100.00;97593.31;5137208;27;19926;-89
2023/01/14 10:30:46;;;;;;;;;;;;;;;7.46;100.00;97592.50;5134071;27;19926;-88
2023/01/14 10:33:15;;;;;;;;;;;;;;;7.53;100.00;97586.69;5132371;27;19922;-87
2023/01/14 10:35:43;;;;;;;;;;;;;;;7.59;100.00;97588.00;5135619;27;19918;-89
2023/01/14 10:38:18;;;;;;;;;;;;;;;7.47;100.00;97587.19;5132624;27;19946;-88
2023/01/14 10:40:46;;;;;;;;;;;;;;;7.57;100.00;97582.09;5143545;27;20414;-89
2023/01/14 10:43:33;;;;;;;;;;;;;;;7.64;100.00;97567.66;5137171;27;20257;-89
2023/01/14 10:46:00;;;;;;;;;;;;;;;7.68;100.00;97561.25;5149305;27;19926;-88
2023/01/14 10:48:28;;;;;;;;;;;;;;;7.77;100.00;97563.19;5132070;27;19919;-89
2023/01/14 10:51:15;;;;;;;;;;;;;;;7.67;100.00;97553.59;5127496;27;19918;-89
2023/01/14 10:53:42;;;;;;;;;;;;;;;7.49;100.00;97548.84;5154931;27;19919;-88
2023/01/14 10:56:09;;;;;;;;;;;;;;;7.58;100.00;97531.69;5124995;27;19919;-89
2023/01/14 10:58:41;;;;;;;;;;;;;;;7.61;100.00;97536.63;5134973;27;19919;-88
2023/01/14 11:01:10;;;;;;;;;;;;;;;7.75;100.00;97535.59;5123217;27;20002;-88
2023/01/14 11:03:39;;;;;;;;;;;;;;;7.77;100.00;97534.53;5144359;27;19919;-87
2023/01/14 11:06:13;;;;;;;;;;;;;;;7.83;100.00;97535.84;5136221;27;19926;-88
2023/01/14 11:08:41;;;;;;;;;;;;;;;7.87;100.00;97537.25;5136421;27;20283;-88
2023/01/14 11:11:18;;;;;;;;;;;;;;;7.78;100.00;97525.75;5123145;27;19926;-89
2023/01/14 11:13:48;;;;;;;;;;;;;;;7.72;100.00;97523.66;5131584;27;20446;-89
2023/01/14 11:16:30;;;;;;;;;;;;;;;7.74;100.00;97513.13;5125697;27;20380;-88
2023/01/14 11:19:04;;;;;;;;;;;;;;;7.77;100.00;97507.66;5137112;27;19998;-89
2023/01/14 11:21:35;;;;;;;;;;;;;;;7.72;100.00;97504.56;5136883;27;20364;-88
2023/01/14 11:24:07;;;;;;;;;;;;;;;7.74;100.00;97498.31;5136027;27;19919;-88
2023/01/14 11:26:36;;;;;;;;;;;;;;;7.73;100.00;97498.41;5136441;27;19919;-88
2023/01/14 11:29:06;;;;;;;;;;;;;;;7.64;100.00;97502.56;5145807;27;20009;-89
2023/01/14 11:31:38;;;;;;;;;;;;;;;7.78;100.00;97493.69;5154012;27;19950;-88
2023/01/14 11:34:17;;;;;;;;;;;;;;;7.78;100.00;97489.28;5151894;27;19919;-88
2023/01/14 11:36:44;;;;;;;;;;;;;;;7.67;100.00;97486.72;5153943;27;19923;-89
2023/01/14 11:39:15;;;;;;;;;;;;;;;7.70;100.00;97481.28;5143062;27;20284;-89
2023/01/14 11:41:41;;;;;;;;;;;;;;;7.87;100.00;97473.91;5130205;27;19923;-88
2023/01/14 11:44:14;;;;;;;;;;;;;;;7.85;100.00;97468.00;5152451;27;19933;-88
2023/01/14 11:46:43;;;;;;;;;;;;;;;7.83;100.00;97468.13;5135821;27;19919;-89
2023/01/14 11:49:13;;;;;;;;;;;;;;;7.91;100.00;97462.28;5135821;27;19919;-88
2023/01/14 11:51:40;;;;;;;;;;;;;;;7.86;100.00;97454.84;5136416;27;19942;-90
2023/01/14 11:54:18;;;;;;;;;;;;;;;7.87;100.00;97453.88;5131647;28;19926;-89
2023/01/14 11:56:46;;;;;;;;;;;;;;;7.88;100.00;97455.56;5128449;27;19919;-89
2023/01/14 11:59:31;;;;;;;;;;;;;;;7.83;100.00;97451.66;5134501;27;19941;-90
2023/01/14 12:01:57;;;;;;;;;;;;;;;7.75;100.00;97445.25;5136238;27;19930;-90
2023/01/14 12:04:33;;;;;;;;;;;;;;;7.77;100.00;97439.94;5136307;27;19923;-90
2023/01/14 12:07:00;;;;;;;;;;;;;;;7.88;100.00;97437.31;5149413;27;19925;-90
2023/01/14 12:09:48;;;;;;;;;;;;;;;7.70;100.00;97429.19;5152581;27;19930;-89
2023/01/14 12:12:15;;;;;;;;;;;;;;;7.59;100.00;97427.41;5137183;27;20469;-89
2023/01/14 12:17:30;;;;;;;;;;;;;;;7.65;100.00;97428.72;5154432;27;19926;-88
2023/01/14 12:20:01;;;;;;;;;;;;;;;7.83;100.00;97426.44;5133350;27;20155;-86
2023/01/14 12:22:35;;;;;;;;;;;;;;;8.00;100.00;97419.88;5143951;27;19919;-91
2023/01/14 12:25:04;;;;;;;;;;;;;;;7.95;100.00;97420.25;5138497;27;19926;-91
2023/01/14 12:27:44;;;;;;;;;;;;;;;7.92;100.00;97414.47;5141788;27;19919;-90
2023/01/14 12:30:20;;;;;;;;;;;;;;;7.78;100.00;97402.53;5137556;27;19926;-89
2023/01/14 12:32:51;;;;;;;;;;;;;;;7.90;100.00;97396.34;5151725;27;19919;-89
2023/01/14 12:35:19;;;;;;;;;;;;;;;7.67;100.00;97398.19;5139572;27;19930;-86
2023/01/14 12:37:54;;;;;;;;;;;;;;;7.78;100.00;97395.53;5136641;27;19988;-86
2023/01/14 12:46:05;;;;;;;;;;;;;;;8.05;100.00;97380.44;5154296;27;19919;-88
2023/01/14 12:48:32;;;;;;;;;;;;;;;8.10;100.00;97380.88;5128826;27;19923;-89
2023/01/14 12:51:05;;;;;;;;;;;;;;;8.12;100.00;97371.97;5138031;27;19930;-88
2023/01/14 12:53:35;;;;;;;;;;;;;;;8.08;100.00;97377.59;5126090;27;19926;-88
2023/01/14 12:56:04;;;;;;;;;;;;;;;8.06;100.00;97379.50;5138305;27;19927;-88
2023/01/14 12:58:32;;;;;;;;;;;;;;;8.13;100.00;97373.66;5147465;27;20288;-88
2023/01/14 13:01:01;;;;;;;;;;;;;;;8.18;100.00;97370.69;5134550;27;20018;-87
2023/01/14 13:03:36;;;;;;;;;;;;;;;8.03;100.00;97369.31;5134673;27;19930;-87
2023/01/14 13:06:08;;;;;;;;;;;;;;;7.74;100.00;97369.88;5151374;27;19933;-87
2023/01/14 13:08:35;;;;;;;;;;;;;;;7.71;100.00;97357.91;5138073;27;19971;-88
2023/01/14 13:11:04;;;;;;;;;;;;;;;7.63;100.00;97357.69;5138972;27;19926;-90
2023/01/14 13:13:34;;;;;;;;;;;;;;;7.74;100.00;97356.88;5139943;27;20376;-90
2023/01/14 13:16:02;;;;;;;;;;;;;;;7.88;100.00;97351.38;5138768;27;20329;-90
2023/01/14 13:18:34;;;;;;;;;;;;;;;7.89;100.00;97353.00;5139368;27;19930;-90
2023/01/14 13:21:02;;;;;;;;;;;;;;;7.79;100.00;97360.75;5136422;27;19919;-90
2023/01/14 13:23:35;;;;;;;;;;;;;;;7.69;100.00;97357.22;5138907;27;20368;-91
2023/01/14 13:26:03;;;;;;;;;;;;;;;7.97;100.00;97344.59;5143181;27;20554;-90
2023/01/14 13:28:30;;;;;;;;;;;;;;;7.98;100.00;97344.47;5157523;27;19919;-90
2023/01/14 13:31:01;;;;;;;;;;;;;;;7.88;100.00;97353.13;5137063;27;20419;-90
2023/01/14 13:33:29;;;;;;;;;;;;;;;7.79;100.00;97349.47;5135418;27;19930;-90
2023/01/14 13:36:11;;;;;;;;;;;;;;;7.77;100.00;97341.81;5155688;27;19919;-90
2023/01/14 13:38:40;;;;;;;;;;;;;;;7.78;100.00;97333.03;5142897;27;19919;-90
2023/01/14 13:41:07;;;;;;;;;;;;;;;7.89;100.00;97332.16;5139887;27;19923;-89